Time;durP1;ratioP1;P1;durP2;ratioP2;P2;SDS_P1;SDS_P2;PMS_P1;PMS_P2;Temp;Humidity;BMP_temperature;BMP_pressure;BME280_temperature;BME280_humidity;BME280_pressure;Samples;Min_cycle;Max_cycle;Signal;HPM_P1;HPM_P2
2022/05/09 00:00:14;;;;;;;8.10;7.23;;;;;;;;;;5061609;28;20230;-82
2022/05/09 00:02:41;;;;;;;9.27;7.47;;;;;;;;;;5061913;28;20206;-82
2022/05/09 00:05:09;;;;;;;11.40;7.87;;;;;;;;;;5061846;28;20265;-81
2022/05/09 00:07:37;;;;;;;11.13;8.30;;;;;;;;;;5061379;28;20217;-81
2022/05/09 00:10:05;;;;;;;8.20;7.40;;;;;;;;;;5061210;28;20249;-81
2022/05/09 00:12:32;;;;;;;9.20;8.30;;;;;;;;;;5062848;28;20207;-81
2022/05/09 00:14:59;;;;;;;8.17;7.33;;;;;;;;;;5062083;28;20241;-81
2022/05/09 00:17:26;;;;;;;10.93;8.60;;;;;;;;;;5062279;28;20206;-81
2022/05/09 00:19:53;;;;;;;8.93;8.03;;;;;;;;;;5061737;28;20380;-81
2022/05/09 00:22:20;;;;;;;8.30;7.40;;;;;;;;;;5062135;28;20237;-82
2022/05/09 00:24:48;;;;;;;10.60;8.33;;;;;;;;;;5061095;28;20707;-82
2022/05/09 00:27:15;;;;;;;12.83;8.53;;;;;;;;;;5061940;28;20213;-82
2022/05/09 00:29:42;;;;;;;8.93;8.03;;;;;;;;;;5061547;28;20252;-81
2022/05/09 00:32:10;;;;;;;8.40;7.60;;;;;;;;;;5061976;28;20232;-81
2022/05/09 00:34:37;;;;;;;12.27;7.90;;;;;;;;;;5060562;28;20233;-81
2022/05/09 00:37:05;;;;;;;8.70;7.80;;;;;;;;;;5060955;28;20202;-81
2022/05/09 00:39:33;;;;;;;9.40;8.20;;;;;;;;;;5059771;28;20501;-81
2022/05/09 00:42:09;;;;;;;8.63;7.80;;;;;;;;;;5061377;28;20206;-81
2022/05/09 00:44:36;;;;;;;10.43;7.93;;;;;;;;;;5059781;28;20230;-81
2022/05/09 00:47:03;;;;;;;8.63;7.73;;;;;;;;;;5061207;28;20210;-81
2022/05/09 00:49:32;;;;;;;8.70;7.90;;;;;;;;;;5059821;28;20249;-81
2022/05/09 00:52:03;;;;;;;8.20;7.27;;;;;;;;;;5061362;28;20233;-81
2022/05/09 00:54:33;;;;;;;8.27;7.30;;;;;;;;;;5059994;28;20237;-81
2022/05/09 00:57:02;;;;;;;9.67;8.50;;;;;;;;;;5060006;28;20210;-81
2022/05/09 00:59:31;;;;;;;10.67;7.97;;;;;;;;;;5056499;28;20244;-79
2022/05/09 01:01:58;;;;;;;9.73;7.17;;;;;;;;;;5054146;28;20202;-79
2022/05/09 01:04:27;;;;;;;8.37;6.93;;;;;;;;;;5053693;28;20233;-79
2022/05/09 01:06:54;;;;;;;7.60;6.90;;;;;;;;;;5056222;28;20213;-79
2022/05/09 01:09:21;;;;;;;9.07;7.13;;;;;;;;;;5070546;28;20234;-79
2022/05/09 01:11:49;;;;;;;8.07;6.87;;;;;;;;;;5075820;28;20260;-79
2022/05/09 01:14:18;;;;;;;8.87;6.97;;;;;;;;;;5076307;28;20245;-79
2022/05/09 01:16:47;;;;;;;7.30;6.67;;;;;;;;;;5076987;28;20205;-79
2022/05/09 01:19:24;;;;;;;8.50;7.37;;;;;;;;;;5074595;28;20323;-79
2022/05/09 01:21:52;;;;;;;8.10;7.30;;;;;;;;;;5075918;28;20213;-78
2022/05/09 01:24:21;;;;;;;8.10;6.93;;;;;;;;;;5075607;28;20252;-78
2022/05/09 01:26:48;;;;;;;8.03;7.23;;;;;;;;;;5076518;28;20205;-78
2022/05/09 01:29:19;;;;;;;7.23;6.57;;;;;;;;;;5075379;28;20241;-78
2022/05/09 01:31:47;;;;;;;8.33;7.30;;;;;;;;;;5076342;28;20281;-78
2022/05/09 01:34:16;;;;;;;9.03;8.13;;;;;;;;;;5075548;28;20240;-78
2022/05/09 01:36:44;;;;;;;8.40;7.57;;;;;;;;;;5076428;28;20228;-78
2022/05/09 01:39:14;;;;;;;8.80;7.90;;;;;;;;;;5075400;28;20241;-79
2022/05/09 01:41:43;;;;;;;10.00;7.47;;;;;;;;;;5076593;28;20210;-80
2022/05/09 01:44:10;;;;;;;8.90;8.00;;;;;;;;;;5075361;28;20234;-78
2022/05/09 01:49:29;;;;;;;8.00;7.23;;;;;;;;;;5076537;28;20221;-80
2022/05/09 01:49:31;;;;;;;9.93;7.20;;;;;;;;;;5074626;28;20241;-79
2022/05/09 01:51:59;;;;;;;8.43;7.57;;;;;;;;;;5075417;28;20236;-78
2022/05/09 01:54:28;;;;;;;8.67;7.60;;;;;;;;;;5074534;28;20240;-78
2022/05/09 01:56:55;;;;;;;8.97;8.07;;;;;;;;;;5074839;28;20255;-78
2022/05/09 01:59:22;;;;;;;10.50;8.13;;;;;;;;;;5074419;28;20248;-79
2022/05/09 02:01:51;;;;;;;9.20;8.30;;;;;;;;;;5075241;28;20201;-79
2022/05/09 02:04:18;;;;;;;8.43;7.63;;;;;;;;;;5074695;28;20240;-78
2022/05/09 02:06:45;;;;;;;8.63;7.57;;;;;;;;;;5075049;28;20209;-78
2022/05/09 02:09:12;;;;;;;8.50;7.60;;;;;;;;;;5074885;28;20229;-78
2022/05/09 02:11:40;;;;;;;8.17;7.40;;;;;;;;;;5075177;28;20228;-77
2022/05/09 02:14:08;;;;;;;8.30;7.50;;;;;;;;;;5074913;28;20232;-77
2022/05/09 02:16:36;;;;;;;11.57;7.60;;;;;;;;;;5075825;28;20565;-78
2022/05/09 02:19:04;;;;;;;9.77;8.30;;;;;;;;;;5075472;28;20232;-78
2022/05/09 02:21:31;;;;;;;9.23;8.30;;;;;;;;;;5076220;28;20202;-78
2022/05/09 02:23:59;;;;;;;9.30;8.33;;;;;;;;;;5075258;28;20257;-79
2022/05/09 02:26:26;;;;;;;10.33;8.23;;;;;;;;;;5075904;28;20578;-78
2022/05/09 02:28:54;;;;;;;9.50;7.87;;;;;;;;;;5075430;28;20229;-79
2022/05/09 02:31:21;;;;;;;9.10;8.20;;;;;;;;;;5076005;28;20701;-78
2022/05/09 02:33:49;;;;;;;9.43;8.13;;;;;;;;;;5075342;28;20229;-77
2022/05/09 02:36:16;;;;;;;8.53;7.70;;;;;;;;;;5075784;28;20216;-77
2022/05/09 02:38:43;;;;;;;9.07;8.07;;;;;;;;;;5075373;28;20233;-80
2022/05/09 02:41:10;;;;;;;9.30;7.77;;;;;;;;;;5076583;28;20229;-77
2022/05/09 02:43:37;;;;;;;12.83;8.80;;;;;;;;;;5078830;28;20229;-79
2022/05/09 02:46:05;;;;;;;11.53;7.70;;;;;;;;;;5079551;28;20209;-77
2022/05/09 02:48:33;;;;;;;9.03;8.13;;;;;;;;;;5078468;28;20209;-78
2022/05/09 02:51:00;;;;;;;7.67;6.97;;;;;;;;;;5079193;28;20233;-78
2022/05/09 02:53:27;;;;;;;11.10;7.47;;;;;;;;;;5079464;28;20216;-78
2022/05/09 02:55:55;;;;;;;9.63;7.63;;;;;;;;;;5079376;28;20685;-78
2022/05/09 02:58:22;;;;;;;9.60;8.10;;;;;;;;;;5079000;28;20296;-77
2022/05/09 03:00:49;;;;;;;10.47;8.30;;;;;;;;;;5079583;28;20229;-77
2022/05/09 03:06:03;;;;;;;9.80;7.70;;;;;;;;;;5077193;28;20277;-77
2022/05/09 03:08:30;;;;;;;9.50;8.50;;;;;;;;;;5058905;28;20210;-79
2022/05/09 03:10:57;;;;;;;8.57;7.60;;;;;;;;;;5058520;28;20226;-77
2022/05/09 03:13:24;;;;;;;7.47;6.77;;;;;;;;;;5058337;28;20233;-77
2022/05/09 03:15:52;;;;;;;7.07;6.40;;;;;;;;;;5059137;28;20290;-78
2022/05/09 03:18:23;;;;;;;6.57;6.00;;;;;;;;;;5058237;28;20585;-78
2022/05/09 03:20:51;;;;;;;6.97;6.37;;;;;;;;;;5057973;28;20507;-77
2022/05/09 03:23:18;;;;;;;7.80;7.03;;;;;;;;;;5057071;28;20221;-77
2022/05/09 03:25:45;;;;;;;10.03;6.87;;;;;;;;;;5058441;28;20214;-77
2022/05/09 03:28:13;;;;;;;7.07;5.60;;;;;;;;;;5057369;28;20206;-78
2022/05/09 03:30:41;;;;;;;19.03;5.63;;;;;;;;;;5055886;28;20228;-78
2022/05/09 03:33:08;;;;;;;6.80;6.10;;;;;;;;;;5056199;28;20317;-77
2022/05/09 03:35:37;;;;;;;6.07;5.57;;;;;;;;;;5056796;28;20234;-77
2022/05/09 03:38:04;;;;;;;5.47;4.97;;;;;;;;;;5057047;28;20206;-77
2022/05/09 03:40:31;;;;;;;5.00;4.60;;;;;;;;;;5056754;28;20237;-78
2022/05/09 03:42:59;;;;;;;6.40;5.80;;;;;;;;;;5056948;28;20225;-78
2022/05/09 03:45:26;;;;;;;6.07;5.57;;;;;;;;;;5054712;28;20717;-79
2022/05/09 03:47:54;;;;;;;6.27;5.77;;;;;;;;;;5056591;28;20217;-80
2022/05/09 03:50:21;;;;;;;6.33;5.83;;;;;;;;;;5055536;28;20238;-80
2022/05/09 03:52:49;;;;;;;5.93;5.43;;;;;;;;;;5056212;28;20230;-79
2022/05/09 03:55:16;;;;;;;8.80;5.90;;;;;;;;;;5055657;28;20260;-80
2022/05/09 03:57:47;;;;;;;5.37;4.87;;;;;;;;;;5056151;28;20674;-81
2022/05/09 04:00:15;;;;;;;5.93;5.13;;;;;;;;;;5054718;28;20313;-80
2022/05/09 04:02:43;;;;;;;6.00;4.77;;;;;;;;;;5039085;28;20229;-79
2022/05/09 04:05:15;;;;;;;5.27;4.73;;;;;;;;;;5043550;28;20269;-79
2022/05/09 04:07:42;;;;;;;6.57;5.30;;;;;;;;;;5056071;28;20296;-79
2022/05/09 04:10:11;;;;;;;6.80;5.93;;;;;;;;;;5041711;28;20234;-81
2022/05/09 04:12:38;;;;;;;8.90;7.10;;;;;;;;;;5037413;28;20241;-77
2022/05/09 04:17:50;;;;;;;7.43;6.27;;;;;;;;;;5047498;28;20654;-78
2022/05/09 04:20:17;;;;;;;7.83;6.50;;;;;;;;;;5045403;28;20234;-77
2022/05/09 04:22:44;;;;;;;6.90;6.30;;;;;;;;;;5055218;28;20209;-77
2022/05/09 04:25:13;;;;;;;6.30;5.70;;;;;;;;;;5053610;28;20238;-76
2022/05/09 04:27:40;;;;;;;5.87;5.37;;;;;;;;;;5053242;28;20293;-74
2022/05/09 04:30:08;;;;;;;5.67;5.20;;;;;;;;;;5052829;28;20248;-75
2022/05/09 04:32:35;;;;;;;6.10;5.60;;;;;;;;;;5052956;28;20230;-74
2022/05/09 04:35:02;;;;;;;5.67;5.20;;;;;;;;;;5050881;28;20356;-74
2022/05/09 04:37:29;;;;;;;5.93;5.50;;;;;;;;;;5053077;28;20202;-74
2022/05/09 04:39:59;;;;;;;5.93;5.47;;;;;;;;;;5052359;28;20241;-76
2022/05/09 04:42:27;;;;;;;5.93;5.43;;;;;;;;;;5052882;28;20206;-74
2022/05/09 04:44:54;;;;;;;6.20;5.70;;;;;;;;;;5052580;28;20245;-76
2022/05/09 04:47:21;;;;;;;6.70;5.93;;;;;;;;;;5054030;28;20206;-75
2022/05/09 04:49:48;;;;;;;6.60;6.00;;;;;;;;;;5053194;28;20238;-75
2022/05/09 04:52:15;;;;;;;7.40;6.53;;;;;;;;;;5053798;28;20729;-75
2022/05/09 04:54:42;;;;;;;9.63;7.50;;;;;;;;;;5052835;28;20234;-75
2022/05/09 04:57:09;;;;;;;6.93;6.33;;;;;;;;;;5052791;28;20670;-75
2022/05/09 04:59:38;;;;;;;8.40;7.67;;;;;;;;;;5052646;28;20241;-75
2022/05/09 05:02:05;;;;;;;8.60;6.93;;;;;;;;;;5055211;28;20205;-75
2022/05/09 05:04:32;;;;;;;8.83;7.93;;;;;;;;;;5053053;28;20248;-76
2022/05/09 05:06:59;;;;;;;9.63;8.63;;;;;;;;;;5054675;28;20210;-77
2022/05/09 05:09:28;;;;;;;8.83;7.93;;;;;;;;;;5054666;28;20248;-77
2022/05/09 05:11:55;;;;;;;10.53;9.43;;;;;;;;;;5054901;28;20229;-76
2022/05/09 05:14:22;;;;;;;13.73;10.00;;;;;;;;;;5053340;28;20244;-75
2022/05/09 05:17:02;;;;;;;12.90;10.50;;;;;;;;;;5054627;28;20214;-79
2022/05/09 05:19:31;;;;;;;15.23;12.03;;;;;;;;;;5055533;28;20725;-81
2022/05/09 05:21:59;;;;;;;13.80;11.87;;;;;;;;;;5055620;28;20675;-81
2022/05/09 05:24:27;;;;;;;20.40;13.43;;;;;;;;;;5054653;28;20234;-79
2022/05/09 05:26:54;;;;;;;19.90;14.00;;;;;;;;;;5056040;28;20206;-80
2022/05/09 05:29:21;;;;;;;16.23;13.40;;;;;;;;;;5054018;28;20241;-79
2022/05/09 05:31:48;;;;;;;16.57;14.43;;;;;;;;;;5054424;28;20214;-79
2022/05/09 05:34:17;;;;;;;18.40;13.30;;;;;;;;;;5054475;28;20238;-79
2022/05/09 05:36:45;;;;;;;20.10;14.07;;;;;;;;;;5055063;28;20561;-80
2022/05/09 05:39:15;;;;;;;20.53;14.77;;;;;;;;;;5054569;28;20662;-79
2022/05/09 05:41:42;;;;;;;20.40;14.50;;;;;;;;;;5056559;28;20191;-77
2022/05/09 05:44:11;;;;;;;18.53;14.30;;;;;;;;;;5054402;28;20272;-82
2022/05/09 05:46:39;;;;;;;20.23;14.70;;;;;;;;;;5042683;28;20232;-82
2022/05/09 05:49:06;;;;;;;18.63;13.87;;;;;;;;;;5070407;28;20233;-80
2022/05/09 05:51:34;;;;;;;17.93;12.60;;;;;;;;;;5055766;28;20212;-81
2022/05/09 05:54:01;;;;;;;15.50;13.67;;;;;;;;;;5045552;28;20239;-79
2022/05/09 05:56:28;;;;;;;18.17;13.13;;;;;;;;;;5046259;28;20206;-79
2022/05/09 05:58:55;;;;;;;15.63;12.30;;;;;;;;;;5053920;28;20237;-78
2022/05/09 06:01:23;;;;;;;16.00;11.27;;;;;;;;;;5055726;28;20272;-80
2022/05/09 06:03:51;;;;;;;12.13;10.23;;;;;;;;;;5055010;28;20722;-79
2022/05/09 06:06:18;;;;;;;13.23;9.03;;;;;;;;;;5059274;28;20292;-80
2022/05/09 06:08:48;;;;;;;11.17;8.27;;;;;;;;;;5078964;28;20229;-81
2022/05/09 06:11:15;;;;;;;9.57;7.43;;;;;;;;;;5080299;28;20230;-80
2022/05/09 06:13:42;;;;;;;11.83;8.27;;;;;;;;;;5060964;28;20297;-80
2022/05/09 06:16:10;;;;;;;7.50;6.30;;;;;;;;;;5059875;28;20208;-81
2022/05/09 06:18:37;;;;;;;11.53;6.10;;;;;;;;;;5062554;28;20245;-82
2022/05/09 06:21:05;;;;;;;9.77;6.30;;;;;;;;;;5059810;28;20226;-78
2022/05/09 06:23:32;;;;;;;8.70;7.53;;;;;;;;;;5058193;28;20206;-83
2022/05/09 06:26:01;;;;;;;10.60;7.27;;;;;;;;;;5059002;28;20697;-78
2022/05/09 06:28:28;;;;;;;11.50;6.20;;;;;;;;;;5058620;28;20686;-80
2022/05/09 06:30:55;;;;;;;8.57;6.70;;;;;;;;;;5059348;28;20621;-78
2022/05/09 06:33:23;;;;;;;6.43;5.77;;;;;;;;;;5058214;28;20259;-79
2022/05/09 06:35:51;;;;;;;9.27;6.13;;;;;;;;;;5057156;28;20213;-80
2022/05/09 06:38:19;;;;;;;8.07;6.07;;;;;;;;;;5058624;28;20216;-79
2022/05/09 06:40:46;;;;;;;8.17;5.77;;;;;;;;;;5058636;28;20230;-79
2022/05/09 06:43:15;;;;;;;7.30;5.60;;;;;;;;;;5058643;28;20202;-78
2022/05/09 06:45:42;;;;;;;9.23;5.80;;;;;;;;;;5057531;28;20248;-79
2022/05/09 06:48:10;;;;;;;6.87;5.67;;;;;;;;;;5059286;28;20248;-79
2022/05/09 06:50:37;;;;;;;8.67;6.03;;;;;;;;;;5058115;28;20608;-79
2022/05/09 06:53:05;;;;;;;6.33;5.20;;;;;;;;;;5058416;28;20232;-84
2022/05/09 06:55:32;;;;;;;6.07;4.80;;;;;;;;;;5056942;28;20232;-79
2022/05/09 06:57:59;;;;;;;6.73;4.80;;;;;;;;;;5056767;28;20209;-81
2022/05/09 07:00:27;;;;;;;7.63;5.00;;;;;;;;;;5057379;28;20234;-79
2022/05/09 07:02:54;;;;;;;7.37;4.87;;;;;;;;;;5055625;28;20214;-78
2022/05/09 07:05:22;;;;;;;8.53;4.50;;;;;;;;;;5036008;28;20601;-78
2022/05/09 07:07:50;;;;;;;8.23;5.10;;;;;;;;;;5053908;28;20301;-80
2022/05/09 07:10:18;;;;;;;5.23;4.53;;;;;;;;;;5056817;28;20263;-80
2022/05/09 07:12:45;;;;;;;6.93;4.50;;;;;;;;;;5057112;28;20218;-78
2022/05/09 07:15:13;;;;;;;5.50;4.37;;;;;;;;;;5047533;28;20233;-79
2022/05/09 07:17:42;;;;;;;4.43;4.03;;;;;;;;;;5057533;28;20233;-78
2022/05/09 07:20:09;;;;;;;6.40;4.20;;;;;;;;;;5056527;28;20242;-78
2022/05/09 07:22:36;;;;;;;4.43;3.77;;;;;;;;;;5058731;28;20198;-79
2022/05/09 07:25:03;;;;;;;5.43;3.80;;;;;;;;;;5059782;28;20461;-80
2022/05/09 07:27:31;;;;;;;5.37;3.60;;;;;;;;;;5059905;28;20206;-79
2022/05/09 07:29:58;;;;;;;7.22;4.00;;;;;;;;;;5059326;28;20253;-81
2022/05/09 07:32:25;;;;;;;5.75;3.60;;;;;;;;;;5059983;28;20206;-81
2022/05/09 07:34:53;;;;;;;6.60;3.78;;;;;;;;;;5060169;28;20233;-81
2022/05/09 07:37:21;;;;;;;7.28;3.63;;;;;;;;;;5061899;28;20209;-79
2022/05/09 07:39:48;;;;;;;7.25;4.57;;;;;;;;;;5059029;28;20240;-81
2022/05/09 07:42:15;;;;;;;4.60;3.50;;;;;;;;;;5052118;28;20198;-81
2022/05/09 07:44:43;;;;;;;5.85;3.72;;;;;;;;;;5040570;28;20218;-81
2022/05/09 07:47:10;;;;;;;4.43;3.40;;;;;;;;;;5039976;28;20209;-81
2022/05/09 07:49:37;;;;;;;7.78;3.50;;;;;;;;;;5054551;28;20226;-81
2022/05/09 07:52:08;;;;;;;5.05;3.65;;;;;;;;;;5054591;28;20206;-81
2022/05/09 07:54:35;;;;;;;4.88;3.38;;;;;;;;;;5053286;28;20721;-81
2022/05/09 07:57:02;;;;;;;5.80;3.78;;;;;;;;;;5055039;28;20202;-80
2022/05/09 07:59:29;;;;;;;4.38;3.40;;;;;;;;;;5052916;28;20246;-81
2022/05/09 08:01:56;;;;;;;3.53;3.22;;;;;;;;;;5052883;28;20562;-80
2022/05/09 08:04:23;;;;;;;6.47;3.22;;;;;;;;;;5053081;28;20230;-81
2022/05/09 08:06:51;;;;;;;4.43;3.60;;;;;;;;;;5052306;28;20209;-81
2022/05/09 08:09:19;;;;;;;7.82;3.53;;;;;;;;;;5052146;28;20576;-82
2022/05/09 08:11:46;;;;;;;4.15;3.28;;;;;;;;;;5054292;28;20206;-81
2022/05/09 08:14:13;;;;;;;7.57;3.50;;;;;;;;;;5052529;28;20248;-82
2022/05/09 08:16:41;;;;;;;3.80;3.50;;;;;;;;;;5053797;28;20214;-82
2022/05/09 08:19:08;;;;;;;4.45;3.30;;;;;;;;;;5051239;28;20229;-82
2022/05/09 08:21:36;;;;;;;4.30;3.17;;;;;;;;;;5054799;28;20256;-81
2022/05/09 08:24:03;;;;;;;7.32;3.47;;;;;;;;;;5053235;28;20321;-82
2022/05/09 08:26:31;;;;;;;4.60;3.20;;;;;;;;;;5054594;28;20210;-79
2022/05/09 08:28:58;;;;;;;3.65;3.25;;;;;;;;;;5056254;28;20230;-81
2022/05/09 08:31:25;;;;;;;4.57;3.63;;;;;;;;;;5058207;28;20214;-81
2022/05/09 08:33:53;;;;;;;3.95;3.10;;;;;;;;;;5057850;28;20229;-81
2022/05/09 08:39:02;;;;;;;4.85;3.40;;;;;;;;;;5068614;28;20236;-82
2022/05/09 08:41:31;;;;;;;3.47;3.17;;;;;;;;;;5091659;28;20213;-82
2022/05/09 08:44:10;;;;;;;4.28;3.40;;;;;;;;;;5088932;28;20239;-82
2022/05/09 08:46:40;;;;;;;3.47;2.90;;;;;;;;;;5090839;28;20209;-82
2022/05/09 08:49:17;;;;;;;3.65;3.15;;;;;;;;;;5090374;28;20233;-82
2022/05/09 08:51:49;;;;;;;3.60;2.83;;;;;;;;;;5091495;28;20201;-82
2022/05/09 08:54:19;;;;;;;4.45;3.10;;;;;;;;;;5081525;28;20245;-82
2022/05/09 08:56:47;;;;;;;5.30;3.38;;;;;;;;;;5063313;28;20205;-82
2022/05/09 08:59:25;;;;;;;3.10;2.80;;;;;;;;;;5059860;28;20229;-82
2022/05/09 09:01:53;;;;;;;3.83;2.90;;;;;;;;;;5058894;28;20218;-82
2022/05/09 09:04:22;;;;;;;6.72;2.85;;;;;;;;;;5048504;28;20229;-82
2022/05/09 09:06:56;;;;;;;7.70;4.03;;;;;;;;;;5056533;28;20218;-82
2022/05/09 09:09:30;;;;;;;4.50;3.10;;;;;;;;;;5056422;28;20237;-82
2022/05/09 09:12:00;;;;;;;3.75;3.35;;;;;;;;;;5056062;28;20201;-82
2022/05/09 09:14:33;;;;;;;6.90;3.13;;;;;;;;;;5051632;28;20242;-81
2022/05/09 09:17:08;;;;;;;4.28;3.03;;;;;;;;;;5051730;28;20214;-83
2022/05/09 09:19:53;;;;;;;119.90;29.05;;;;;;;;;;5051764;28;20260;-83
2022/05/09 09:22:25;;;;;;;4.18;3.30;;;;;;;;;;5041476;28;20206;-83
2022/05/09 09:25:16;;;;;;;3.83;3.30;;;;;;;;;;5050227;28;20230;-83
2022/05/09 09:27:44;;;;;;;8.00;3.35;;;;;;;;;;5031778;28;20241;-83
2022/05/09 09:30:15;;;;;;;4.40;3.22;;;;;;;;;;5054153;28;20238;-83
2022/05/09 09:32:46;;;;;;;4.97;3.17;;;;;;;;;;5053522;28;20190;-83
2022/05/09 09:35:15;;;;;;;4.43;3.03;;;;;;;;;;5053477;28;20242;-83
2022/05/09 09:37:46;;;;;;;3.30;2.60;;;;;;;;;;5051925;28;20580;-84
2022/05/09 09:40:13;;;;;;;5.93;3.25;;;;;;;;;;5051007;28;20242;-83
2022/05/09 09:42:41;;;;;;;3.25;2.97;;;;;;;;;;5051306;28;20231;-84
2022/05/09 09:45:19;;;;;;;3.95;3.40;;;;;;;;;;5044778;28;20225;-83
2022/05/09 09:47:47;;;;;;;3.08;2.80;;;;;;;;;;5051603;28;20197;-83
2022/05/09 09:50:16;;;;;;;3.60;2.90;;;;;;;;;;5056988;28;20238;-84
2022/05/09 09:52:45;;;;;;;3.00;2.70;;;;;;;;;;5054493;28;20566;-83
2022/05/09 09:55:21;;;;;;;3.38;3.08;;;;;;;;;;5051673;28;20233;-83
2022/05/09 09:57:48;;;;;;;3.13;2.67;;;;;;;;;;5055629;28;20190;-83
2022/05/09 10:00:19;;;;;;;2.65;2.35;;;;;;;;;;5051551;28;20245;-83
2022/05/09 10:02:46;;;;;;;3.30;2.60;;;;;;;;;;5051308;28;20205;-83
2022/05/09 10:05:15;;;;;;;3.92;2.75;;;;;;;;;;5049529;28;20229;-83
2022/05/09 10:07:44;;;;;;;6.10;3.03;;;;;;;;;;5050804;28;20236;-83
2022/05/09 10:10:12;;;;;;;6.47;3.20;;;;;;;;;;5050070;28;20709;-83
2022/05/09 10:12:40;;;;;;;3.60;3.20;;;;;;;;;;5051148;28;20248;-83
2022/05/09 10:15:22;;;;;;;5.28;2.80;;;;;;;;;;5049635;28;20249;-83
2022/05/09 10:17:49;;;;;;;3.67;2.90;;;;;;;;;;5051065;28;20220;-83
2022/05/09 10:20:28;;;;;;;3.80;3.08;;;;;;;;;;5050101;28;20250;-83
2022/05/09 10:26:00;;;;;;;3.90;2.80;;;;;;;;;;4950643;29;20236;-83
2022/05/09 10:28:29;;;;;;;5.88;3.10;;;;;;;;;;5013296;28;20230;-83
2022/05/09 10:31:01;;;;;;;3.13;2.83;;;;;;;;;;5031485;28;20231;-83
2022/05/09 10:33:33;;;;;;;3.53;3.13;;;;;;;;;;5031446;28;20211;-84
2022/05/09 10:36:03;;;;;;;2.95;2.55;;;;;;;;;;5030258;28;20305;-84
2022/05/09 10:38:35;;;;;;;3.35;2.70;;;;;;;;;;5030487;28;20281;-84
2022/05/09 10:41:09;;;;;;;3.15;2.85;;;;;;;;;;5067444;28;20229;-84
2022/05/09 10:43:38;;;;;;;3.25;2.95;;;;;;;;;;5069956;28;20730;-84
2022/05/09 10:46:11;;;;;;;4.55;2.70;;;;;;;;;;5070246;28;20209;-84
2022/05/09 10:48:42;;;;;;;4.82;2.88;;;;;;;;;;5069825;28;20233;-84
2022/05/09 10:51:11;;;;;;;3.80;2.60;;;;;;;;;;5070823;28;20252;-84
2022/05/09 10:53:43;;;;;;;4.38;2.67;;;;;;;;;;5069626;28;20229;-84
2022/05/09 10:56:13;;;;;;;3.22;2.67;;;;;;;;;;5070254;28;20217;-84
2022/05/09 10:58:42;;;;;;;3.78;3.10;;;;;;;;;;5065633;28;20234;-84
2022/05/09 11:01:13;;;;;;;3.63;3.05;;;;;;;;;;5050354;28;20643;-85
2022/05/09 11:03:41;;;;;;;4.32;3.22;;;;;;;;;;5051415;28;20233;-84
2022/05/09 11:06:29;;;;;;;6.18;3.35;;;;;;;;;;5054081;28;20290;-85
2022/05/09 11:09:06;;;;;;;2.92;2.55;;;;;;;;;;5047601;28;20238;-85
2022/05/09 11:11:38;;;;;;;3.47;2.53;;;;;;;;;;5054587;28;20194;-85
2022/05/09 11:14:08;;;;;;;3.90;2.63;;;;;;;;;;5053215;28;20238;-84
2022/05/09 11:16:42;;;;;;;3.05;2.85;;;;;;;;;;5053831;28;20202;-85
2022/05/09 11:19:17;;;;;;;2.40;2.20;;;;;;;;;;5057316;28;20234;-85
2022/05/09 11:21:48;;;;;;;3.33;2.55;;;;;;;;;;5057418;28;20198;-84
2022/05/09 11:24:22;;;;;;;3.70;2.05;;;;;;;;;;5055618;28;20232;-85
2022/05/09 11:26:53;;;;;;;2.53;2.33;;;;;;;;;;5056494;28;20210;-85
2022/05/09 11:29:26;;;;;;;2.38;2.17;;;;;;;;;;5056579;28;20780;-84
2022/05/09 11:32:16;;;;;;;4.38;2.55;;;;;;;;;;5057163;28;20210;-86
2022/05/09 11:34:53;;;;;;;4.28;2.20;;;;;;;;;;5024588;28;20236;-84
2022/05/09 11:37:24;;;;;;;4.03;2.00;;;;;;;;;;5056646;28;20921;-85
2022/05/09 11:39:58;;;;;;;2.40;2.20;;;;;;;;;;5056061;28;20697;-84
2022/05/09 11:45:21;;;;;;;2.30;2.10;;;;;;;;;;5055881;28;20276;-84
2022/05/09 11:47:56;;;;;;;2.30;2.20;;;;;;;;;;5056735;28;20370;-85
2022/05/09 11:50:43;;;;;;;2.65;2.22;;;;;;;;;;5055745;28;20713;-85
2022/05/09 11:53:11;;;;;;;2.40;2.30;;;;;;;;;;5054829;28;20213;-85
2022/05/09 11:55:39;;;;;;;3.13;2.08;;;;;;;;;;5052867;28;20241;-85
2022/05/09 11:58:06;;;;;;;2.58;2.38;;;;;;;;;;5054992;28;20242;-84
2022/05/09 12:00:53;;;;;;;2.50;2.30;;;;;;;;;;5053636;28;20238;-84
2022/05/09 12:03:39;;;;;;;3.05;2.55;;;;;;;;;;5065850;28;20202;-85
2022/05/09 12:06:12;;;;;;;2.38;2.17;;;;;;;;;;5054454;28;20202;-85
2022/05/09 12:08:43;;;;;;;2.83;2.33;;;;;;;;;;5053996;28;20817;-85
2022/05/09 12:11:40;;;;;;;3.00;2.70;;;;;;;;;;5054447;28;20213;-85
2022/05/09 12:14:07;;;;;;;2.70;2.25;;;;;;;;;;4959074;28;20249;-85
2022/05/09 12:16:52;;;;;;;2.97;1.90;;;;;;;;;;5013850;28;20691;-85
2022/05/09 12:19:29;;;;;;;1.98;1.88;;;;;;;;;;5032723;28;20297;-85
2022/05/09 12:22:21;;;;;;;3.17;2.38;;;;;;;;;;5033233;28;20241;-85
2022/05/09 12:24:48;;;;;;;3.08;2.30;;;;;;;;;;5031993;28;20258;-85
2022/05/09 12:27:33;;;;;;;3.60;2.45;;;;;;;;;;5032771;28;20210;-85
2022/05/09 12:30:00;;;;;;;2.28;2.03;;;;;;;;;;5031972;28;20249;-85
2022/05/09 12:32:27;;;;;;;4.55;2.33;;;;;;;;;;5033073;28;20210;-85
2022/05/09 12:34:55;;;;;;;1.90;1.80;;;;;;;;;;5037665;28;20241;-85
2022/05/09 12:37:24;;;;;;;2.67;2.40;;;;;;;;;;5052916;28;20217;-86
2022/05/09 12:39:53;;;;;;;4.22;2.47;;;;;;;;;;5051252;28;20295;-86
2022/05/09 12:42:26;;;;;;;3.70;2.38;;;;;;;;;;5052839;28;20690;-86
2022/05/09 12:44:56;;;;;;;3.72;2.30;;;;;;;;;;5050995;28;20241;-85
2022/05/09 12:47:25;;;;;;;2.53;2.33;;;;;;;;;;5053613;28;20264;-85
2022/05/09 12:49:56;;;;;;;3.08;2.30;;;;;;;;;;5051747;28;20238;-84
2022/05/09 12:52:25;;;;;;;4.55;3.10;;;;;;;;;;5052551;28;20194;-86
2022/05/09 12:57:36;;;;;;;3.03;2.20;;;;;;;;;;5051198;28;20284;-85
2022/05/09 13:00:09;;;;;;;2.90;2.30;;;;;;;;;;5051676;28;20739;-81
2022/05/09 13:02:36;;;;;;;2.60;2.40;;;;;;;;;;5051533;28;20576;-83
2022/05/09 13:05:04;;;;;;;4.20;2.58;;;;;;;;;;5050594;28;20232;-84
2022/05/09 13:07:32;;;;;;;2.10;2.00;;;;;;;;;;5051561;28;20309;-83
2022/05/09 13:10:00;;;;;;;2.60;1.60;;;;;;;;;;5050665;28;20237;-83
2022/05/09 13:12:29;;;;;;;2.10;2.00;;;;;;;;;;5037772;28;20575;-85
2022/05/09 13:14:58;;;;;;;2.40;2.20;;;;;;;;;;5050065;28;20237;-84
2022/05/09 13:17:28;;;;;;;2.20;2.10;;;;;;;;;;5051752;28;20667;-84
2022/05/09 13:19:55;;;;;;;3.95;2.20;;;;;;;;;;5051183;28;20253;-82
2022/05/09 13:22:23;;;;;;;3.88;2.10;;;;;;;;;;5083443;22;20228;-83
2022/05/09 13:24:52;;;;;;;2.10;2.00;;;;;;;;;;5061801;28;20216;-85
2022/05/09 13:27:21;;;;;;;2.58;2.30;;;;;;;;;;5070966;28;20668;-84
2022/05/09 13:29:50;;;;;;;2.30;2.10;;;;;;;;;;5062038;28;20240;-84
2022/05/09 13:32:24;;;;;;;3.58;1.90;;;;;;;;;;5051617;28;20656;-83
2022/05/09 13:34:52;;;;;;;4.00;2.38;;;;;;;;;;5059713;28;20237;-84
2022/05/09 13:37:27;;;;;;;5.72;2.10;;;;;;;;;;5071536;28;20208;-84
2022/05/09 13:39:56;;;;;;;2.55;2.30;;;;;;;;;;5070873;28;20228;-86
2022/05/09 13:42:26;;;;;;;4.00;2.05;;;;;;;;;;5071838;28;20312;-83
2022/05/09 13:44:54;;;;;;;2.65;2.22;;;;;;;;;;5070236;28;20240;-84
2022/05/09 13:47:22;;;;;;;1.98;1.83;;;;;;;;;;5071193;28;20259;-84
2022/05/09 13:49:50;;;;;;;2.20;2.00;;;;;;;;;;5070716;28;20244;-84
2022/05/09 13:52:20;;;;;;;5.95;2.17;;;;;;;;;;5071465;28;20274;-84
2022/05/09 13:54:49;;;;;;;4.32;2.72;;;;;;;;;;5070613;28;20240;-84
2022/05/09 13:57:19;;;;;;;3.72;2.40;;;;;;;;;;5071484;28;20205;-84
2022/05/09 13:59:47;;;;;;;1.90;1.80;;;;;;;;;;5070814;28;20715;-84
2022/05/09 14:02:15;;;;;;;3.47;2.00;;;;;;;;;;5071171;28;20229;-85
2022/05/09 14:04:43;;;;;;;2.63;1.90;;;;;;;;;;5069911;28;20251;-85
2022/05/09 14:09:59;;;;;;;2.20;2.00;;;;;;;;;;5070440;28;20282;-85
2022/05/09 14:12:28;;;;;;;2.17;1.90;;;;;;;;;;5070688;28;20217;-84
2022/05/09 14:15:01;;;;;;;2.92;2.08;;;;;;;;;;5070143;28;20275;-84
2022/05/09 14:17:31;;;;;;;1.98;1.88;;;;;;;;;;5071321;28;20202;-86
2022/05/09 14:19:59;;;;;;;2.35;2.10;;;;;;;;;;5070449;28;20233;-85
2022/05/09 14:22:27;;;;;;;2.88;2.33;;;;;;;;;;5070899;28;20244;-85
2022/05/09 14:30:32;;;;;;;2.22;2.10;;;;;;;;;;5070851;28;20279;-85
2022/05/09 14:32:59;;;;;;;2.10;2.00;;;;;;;;;;5071025;28;20229;-85
2022/05/09 14:35:41;;;;;;;3.15;2.03;;;;;;;;;;5069850;28;20229;-85
2022/05/09 14:38:23;;;;;;;2.38;2.17;;;;;;;;;;5074039;28;20220;-85
2022/05/09 14:40:50;;;;;;;3.25;2.00;;;;;;;;;;5074446;28;20229;-86
2022/05/09 14:43:29;;;;;;;3.25;2.25;;;;;;;;;;5073987;28;20265;-84
2022/05/09 14:46:03;;;;;;;4.90;2.13;;;;;;;;;;5073755;28;20379;-85
2022/05/09 14:48:32;;;;;;;2.17;1.98;;;;;;;;;;5068172;28;20194;-84
2022/05/09 14:51:02;;;;;;;2.10;2.00;;;;;;;;;;5054786;28;20212;-84
2022/05/09 14:53:30;;;;;;;1.70;1.60;;;;;;;;;;5054183;28;20291;-85
2022/05/09 14:58:49;;;;;;;2.65;2.05;;;;;;;;;;5054149;28;20233;-84
2022/05/09 15:01:21;;;;;;;2.20;2.00;;;;;;;;;;5054866;28;20201;-83
2022/05/09 15:03:50;;;;;;;3.90;2.10;;;;;;;;;;5055153;28;20233;-83
2022/05/09 15:06:18;;;;;;;3.42;1.73;;;;;;;;;;5054755;28;20202;-84
2022/05/09 15:08:46;;;;;;;1.85;1.75;;;;;;;;;;5073150;28;20240;-84
2022/05/09 15:11:17;;;;;;;2.28;2.00;;;;;;;;;;5073809;28;20255;-84
2022/05/09 15:13:45;;;;;;;2.10;2.00;;;;;;;;;;5074399;28;20244;-84
2022/05/09 15:16:15;;;;;;;2.90;2.15;;;;;;;;;;5073587;28;20245;-84
2022/05/09 15:18:43;;;;;;;3.35;2.13;;;;;;;;;;5073566;28;20233;-84
2022/05/09 15:21:10;;;;;;;2.25;2.05;;;;;;;;;;5073741;28;20205;-84